createdAt,value
2018-06-27T00:01:25.024Z,16.76
2018-06-27T00:03:52.882Z,16.87
2018-06-27T00:06:20.725Z,16.88
2018-06-27T00:08:48.539Z,16.81
2018-06-27T00:11:16.402Z,16.98
2018-06-27T00:13:44.262Z,17.19
2018-06-27T00:16:12.164Z,17.26
2018-06-27T00:18:40.103Z,17.20
2018-06-27T00:21:08.003Z,17.11
2018-06-27T00:23:35.895Z,17.10
2018-06-27T00:26:03.850Z,16.91
2018-06-27T00:28:31.725Z,16.69
2018-06-27T00:30:59.613Z,16.60
2018-06-27T00:33:27.498Z,16.21
2018-06-27T00:35:55.425Z,16.05
2018-06-27T00:38:23.317Z,16.04
2018-06-27T00:40:51.259Z,16.06
2018-06-27T00:43:19.150Z,16.03
2018-06-27T00:45:47.062Z,16.26
2018-06-27T00:48:14.923Z,16.31
2018-06-27T00:50:42.772Z,16.15
2018-06-27T00:53:10.682Z,16.30
2018-06-27T00:55:38.598Z,16.23
2018-06-27T00:58:06.709Z,16.16
2018-06-27T01:00:34.777Z,16.33
2018-06-27T01:03:02.719Z,16.44
2018-06-27T01:05:30.633Z,16.36
2018-06-27T01:07:58.522Z,16.12
2018-06-27T01:10:26.346Z,15.94
2018-06-27T01:12:54.234Z,15.95
2018-06-27T01:15:22.121Z,15.75
2018-06-27T01:17:56.424Z,15.84
2018-06-27T01:20:24.563Z,16.00
2018-06-27T01:22:52.424Z,15.99
2018-06-27T01:25:20.871Z,16.17
2018-06-27T01:27:48.998Z,15.94
2018-06-27T01:30:17.058Z,15.89
2018-06-27T01:32:44.891Z,15.81
2018-06-27T01:35:13.213Z,15.94
2018-06-27T01:37:41.138Z,15.82
2018-06-27T01:40:09.004Z,15.90
2018-06-27T01:42:36.927Z,16.03
2018-06-27T01:45:04.867Z,15.94
2018-06-27T01:47:32.762Z,16.00
2018-06-27T01:50:00.693Z,16.23
2018-06-27T01:52:28.610Z,16.26
2018-06-27T01:54:56.469Z,16.29
2018-06-27T01:57:24.336Z,16.35
2018-06-27T01:59:52.204Z,16.45
2018-06-27T02:02:20.125Z,16.43
2018-06-27T02:04:48.063Z,16.51
2018-06-27T02:07:15.946Z,16.43
2018-06-27T02:09:43.875Z,16.46
2018-06-27T02:12:11.695Z,16.60
2018-06-27T02:14:39.600Z,16.68
2018-06-27T02:17:07.495Z,16.52
2018-06-27T02:19:35.403Z,16.59
2018-06-27T02:22:03.326Z,16.55
2018-06-27T02:24:31.246Z,16.59
2018-06-27T02:26:59.157Z,16.62
2018-06-27T02:29:27.050Z,16.50
2018-06-27T02:31:55.012Z,16.52
2018-06-27T02:34:22.895Z,16.58
2018-06-27T02:36:50.743Z,16.51
2018-06-27T02:39:18.614Z,16.49
2018-06-27T02:41:46.517Z,16.69
2018-06-27T02:44:14.428Z,16.73
2018-06-27T02:46:42.340Z,16.73
2018-06-27T02:49:10.214Z,16.81
2018-06-27T02:51:38.105Z,16.88
2018-06-27T02:54:06.024Z,16.83
2018-06-27T02:56:33.934Z,16.91
2018-06-27T02:59:01.823Z,16.90
2018-06-27T03:01:29.720Z,16.85
2018-06-27T03:03:57.636Z,16.90
2018-06-27T03:06:25.545Z,16.92
2018-06-27T03:08:53.461Z,16.91
2018-06-27T03:11:21.357Z,16.93
2018-06-27T03:13:49.259Z,16.87
2018-06-27T03:16:17.178Z,16.78
2018-06-27T03:18:52.184Z,16.90
2018-06-27T03:21:20.472Z,17.03
2018-06-27T03:23:48.425Z,16.98
2018-06-27T03:26:16.299Z,17.05
2018-06-27T03:28:44.205Z,17.10
2018-06-27T03:31:12.089Z,16.90
2018-06-27T03:33:39.977Z,16.81
2018-06-27T03:36:07.827Z,16.74
2018-06-27T03:38:35.835Z,16.94
2018-06-27T03:41:03.781Z,16.97
2018-06-27T03:43:31.635Z,16.98
2018-06-27T03:45:59.579Z,17.06
2018-06-27T03:48:27.467Z,16.96
2018-06-27T03:50:55.387Z,16.90
2018-06-27T03:53:23.278Z,16.90
2018-06-27T03:55:51.207Z,16.97
2018-06-27T03:58:19.138Z,17.12
2018-06-27T04:00:46.993Z,17.26
2018-06-27T04:03:14.827Z,17.30
2018-06-27T04:05:42.679Z,17.36
2018-06-27T04:08:10.544Z,17.33
2018-06-27T04:10:38.422Z,17.36
2018-06-27T04:13:06.481Z,17.47
2018-06-27T04:15:36.695Z,17.58
2018-06-27T04:18:04.863Z,17.59
2018-06-27T04:20:32.708Z,17.71
2018-06-27T04:23:00.673Z,17.80
2018-06-27T04:25:28.611Z,17.92
2018-06-27T04:27:56.497Z,17.89
2018-06-27T04:30:24.360Z,17.68
2018-06-27T04:32:52.232Z,17.81
2018-06-27T04:35:20.178Z,17.88
2018-06-27T04:37:48.044Z,17.95
2018-06-27T04:40:15.980Z,18.00
2018-06-27T04:42:43.866Z,17.96
2018-06-27T04:45:11.774Z,17.96
2018-06-27T04:47:39.703Z,17.76
2018-06-27T04:50:07.635Z,17.58
2018-06-27T04:52:35.558Z,17.51
2018-06-27T04:55:03.507Z,17.45
2018-06-27T04:57:31.342Z,17.81
2018-06-27T04:59:59.415Z,17.87
2018-06-27T05:02:27.278Z,18.00
2018-06-27T05:04:55.143Z,18.04
2018-06-27T05:07:23.028Z,18.25
2018-06-27T05:09:50.923Z,18.41
2018-06-27T05:12:18.819Z,18.59
2018-06-27T05:14:46.713Z,18.51
2018-06-27T05:17:14.564Z,18.45
2018-06-27T05:19:43.798Z,18.34
2018-06-27T05:22:12.349Z,18.23
2018-06-27T05:24:40.227Z,18.26
2018-06-27T05:27:08.107Z,17.90
2018-06-27T05:29:35.996Z,17.46
2018-06-27T05:32:03.980Z,17.81
2018-06-27T05:34:31.982Z,18.10
2018-06-27T05:36:59.820Z,18.20
2018-06-27T05:39:27.709Z,18.07
2018-06-27T05:41:55.583Z,17.95
2018-06-27T05:44:23.514Z,17.73
2018-06-27T05:46:51.377Z,17.64
2018-06-27T05:49:19.231Z,17.62
2018-06-27T05:51:47.094Z,17.60
2018-06-27T05:54:14.942Z,17.95
2018-06-27T05:56:42.819Z,17.71
2018-06-27T05:59:10.662Z,17.99
2018-06-27T06:01:38.531Z,18.35
2018-06-27T06:04:06.398Z,18.45
2018-06-27T06:06:34.336Z,18.24
2018-06-27T06:09:02.315Z,18.00
2018-06-27T06:11:30.210Z,18.19
2018-06-27T06:13:58.122Z,18.40
2018-06-27T06:16:25.997Z,18.51
2018-06-27T06:18:53.928Z,18.83
2018-06-27T06:21:21.783Z,19.07
2018-06-27T06:23:49.684Z,19.74
2018-06-27T06:26:17.561Z,20.21
2018-06-27T06:28:45.427Z,20.35
2018-06-27T06:31:13.288Z,19.70
2018-06-27T06:33:41.121Z,19.45
2018-06-27T06:36:08.965Z,19.35
2018-06-27T06:38:36.834Z,19.12
2018-06-27T06:41:05.185Z,19.24
2018-06-27T06:43:33.055Z,19.16
2018-06-27T06:46:00.919Z,19.18
2018-06-27T06:48:29.814Z,19.43
2018-06-27T06:50:57.746Z,19.94
2018-06-27T06:53:25.635Z,20.87
2018-06-27T06:55:53.611Z,21.73
2018-06-27T06:58:21.492Z,22.59
2018-06-27T07:00:49.367Z,22.12
2018-06-27T07:03:17.268Z,22.40
2018-06-27T07:05:45.204Z,22.51
2018-06-27T07:08:13.034Z,22.35
2018-06-27T07:10:40.904Z,21.91
2018-06-27T07:13:08.800Z,21.65
2018-06-27T07:15:36.688Z,21.45
2018-06-27T07:18:04.969Z,21.24
2018-06-27T07:20:33.194Z,21.51
2018-06-27T07:23:01.047Z,21.25
2018-06-27T07:25:28.935Z,20.89
2018-06-27T07:27:56.864Z,21.11
2018-06-27T07:30:24.745Z,21.43
2018-06-27T07:32:53.061Z,20.78
2018-06-27T07:35:20.913Z,20.43
2018-06-27T07:37:48.853Z,20.34
2018-06-27T07:40:16.758Z,19.77
2018-06-27T07:42:44.681Z,19.64
2018-06-27T07:45:12.628Z,19.44
2018-06-27T07:47:40.475Z,19.42
2018-06-27T07:50:08.428Z,19.48
2018-06-27T07:52:36.304Z,19.29
2018-06-27T07:55:04.364Z,19.54
2018-06-27T07:57:32.246Z,19.65
2018-06-27T08:00:00.141Z,19.50
2018-06-27T08:02:28.060Z,20.09
2018-06-27T08:04:55.960Z,20.61
2018-06-27T08:07:23.887Z,20.86
2018-06-27T08:09:51.784Z,21.20
2018-06-27T08:12:19.732Z,21.62
2018-06-27T08:14:47.541Z,22.17
2018-06-27T08:17:15.730Z,22.12
2018-06-27T08:19:43.655Z,21.99
2018-06-27T08:22:11.548Z,21.87
2018-06-27T08:24:39.415Z,22.19
2018-06-27T08:27:07.364Z,22.59
2018-06-27T08:29:35.402Z,22.06
2018-06-27T08:32:03.462Z,22.20
2018-06-27T08:34:31.372Z,21.54
2018-06-27T08:39:32.648Z,20.17
2018-06-27T08:42:00.518Z,20.44
2018-06-27T08:44:28.572Z,19.86
2018-06-27T08:46:56.361Z,19.64
2018-06-27T08:49:24.274Z,19.55
2018-06-27T08:51:52.131Z,19.30
2018-06-27T08:54:20.011Z,19.03
2018-06-27T08:56:47.989Z,19.10
2018-06-27T08:59:15.880Z,19.10
2018-06-27T09:01:43.774Z,18.94
2018-06-27T09:04:11.744Z,18.75
2018-06-27T09:06:39.652Z,18.74
2018-06-27T09:09:09.873Z,18.98
2018-06-27T09:18:27.843Z,18.96
2018-06-27T09:20:55.794Z,18.65
2018-06-27T09:23:23.700Z,18.99
2018-06-27T09:25:51.559Z,19.03
2018-06-27T09:28:19.472Z,19.45
2018-06-27T09:30:47.419Z,19.68
2018-06-27T09:33:15.265Z,19.56
2018-06-27T09:35:43.173Z,19.42
2018-06-27T09:38:11.039Z,19.50
2018-06-27T09:40:38.904Z,20.13
2018-06-27T09:43:06.850Z,20.64
2018-06-27T09:45:34.748Z,20.41
2018-06-27T09:48:02.665Z,20.48
2018-06-27T09:50:30.629Z,20.41
2018-06-27T09:52:58.480Z,20.92
2018-06-27T09:55:26.362Z,20.73
2018-06-27T09:57:54.377Z,21.21
2018-06-27T10:00:27.698Z,21.37
2018-06-27T10:02:55.620Z,21.86
2018-06-27T10:05:23.588Z,22.11
2018-06-27T10:07:51.474Z,21.80
2018-06-27T10:10:19.354Z,22.76
2018-06-27T10:12:47.251Z,22.82
2018-06-27T10:15:15.152Z,23.41
2018-06-27T10:17:43.019Z,23.62
2018-06-27T10:20:10.891Z,23.28
2018-06-27T10:22:38.780Z,23.04
2018-06-27T10:25:06.760Z,23.33
2018-06-27T10:27:34.582Z,23.66
2018-06-27T10:30:02.644Z,25.21
2018-06-27T10:32:30.538Z,25.87
2018-06-27T10:34:58.391Z,26.14
2018-06-27T10:37:26.262Z,26.54
2018-06-27T10:39:54.151Z,26.78
2018-06-27T10:42:22.022Z,27.16
2018-06-27T10:44:49.911Z,27.02
2018-06-27T10:47:17.811Z,27.28
2018-06-27T10:49:45.688Z,28.02
2018-06-27T10:52:13.553Z,29.90
2018-06-27T10:54:56.921Z,30.27
2018-06-27T10:57:24.861Z,30.37
2018-06-27T10:59:53.415Z,29.03
2018-06-27T11:02:21.892Z,27.76
2018-06-27T11:04:49.750Z,27.12
2018-06-27T11:07:17.721Z,26.07
2018-06-27T11:09:45.620Z,26.20
2018-06-27T11:12:13.515Z,25.13
2018-06-27T11:14:41.372Z,23.89
2018-06-27T11:17:09.247Z,23.66
2018-06-27T11:19:37.359Z,23.63
2018-06-27T11:22:05.274Z,23.10
2018-06-27T11:24:33.934Z,22.71
2018-06-27T11:27:01.843Z,22.62
2018-06-27T11:29:29.720Z,22.29
2018-06-27T11:31:57.602Z,22.02
2018-06-27T11:34:25.471Z,21.95
2018-06-27T11:36:53.362Z,22.00
2018-06-27T11:39:21.287Z,22.22
2018-06-27T11:41:49.232Z,23.03
2018-06-27T11:44:17.151Z,23.84
2018-06-27T11:46:45.009Z,24.41
2018-06-27T11:49:12.912Z,24.57
2018-06-27T11:51:40.824Z,24.12
2018-06-27T11:54:08.765Z,24.38
2018-06-27T11:56:36.615Z,24.52
2018-06-27T11:59:04.575Z,24.10
2018-06-27T12:01:32.469Z,24.65
2018-06-27T12:04:00.394Z,24.44
2018-06-27T12:06:28.351Z,24.35
2018-06-27T12:08:56.221Z,24.33
2018-06-27T12:11:24.130Z,24.26
2018-06-27T12:13:52.013Z,24.08
2018-06-27T12:16:20.202Z,24.51
2018-06-27T12:18:48.403Z,24.90
2018-06-27T12:21:16.334Z,25.54
2018-06-27T12:23:44.235Z,24.96
2018-06-27T12:26:12.197Z,24.88
2018-06-27T12:28:40.050Z,24.64
2018-06-27T12:31:07.981Z,24.95
2018-06-27T12:33:35.991Z,24.60
2018-06-27T12:36:03.961Z,24.44
2018-06-27T12:38:31.874Z,24.68
2018-06-27T12:40:59.821Z,24.35
2018-06-27T12:43:27.726Z,24.24
2018-06-27T12:45:55.734Z,24.10
2018-06-27T12:48:23.622Z,24.05
2018-06-27T12:50:51.568Z,24.02
2018-06-27T12:53:19.432Z,24.18
2018-06-27T12:55:47.323Z,24.45
2018-06-27T12:58:15.214Z,24.88
2018-06-27T13:00:43.174Z,25.30
2018-06-27T13:03:11.019Z,25.30
2018-06-27T13:05:39.017Z,25.26
2018-06-27T13:08:06.910Z,25.45
2018-06-27T13:10:34.918Z,25.83
2018-06-27T13:13:03.345Z,25.74
2018-06-27T13:15:31.274Z,25.37
2018-06-27T13:17:59.315Z,25.67
2018-06-27T13:20:27.323Z,25.17
2018-06-27T13:22:55.335Z,24.68
2018-06-27T13:25:23.196Z,24.69
2018-06-27T13:27:51.008Z,24.83
2018-06-27T13:30:18.834Z,25.22
2018-06-27T13:32:46.917Z,25.16
2018-06-27T13:35:14.820Z,25.24
2018-06-27T13:37:42.737Z,25.03
2018-06-27T13:40:10.762Z,24.45
2018-06-27T13:42:38.603Z,24.79
2018-06-27T13:45:06.467Z,24.73
2018-06-27T13:47:34.387Z,24.41
2018-06-27T13:50:02.276Z,24.33
2018-06-27T13:52:30.219Z,24.53
2018-06-27T13:54:58.977Z,25.36
2018-06-27T13:57:28.021Z,25.61
2018-06-27T13:59:56.966Z,25.55
2018-06-27T14:02:24.882Z,25.69
2018-06-27T14:04:52.737Z,25.19
2018-06-27T14:07:20.740Z,24.87
2018-06-27T14:09:48.629Z,25.24
2018-06-27T14:12:16.523Z,25.38
2018-06-27T14:14:44.411Z,25.54
2018-06-27T14:17:12.268Z,25.68
2018-06-27T14:19:40.127Z,25.50
2018-06-27T14:22:08.739Z,25.67
2018-06-27T14:24:37.363Z,25.95
2018-06-27T14:27:05.288Z,25.89
2018-06-27T14:29:33.162Z,25.91
2018-06-27T14:32:01.023Z,24.99
2018-06-27T14:34:28.866Z,23.82
2018-06-27T14:36:56.722Z,23.80
2018-06-27T14:39:24.582Z,23.85
2018-06-27T14:41:52.466Z,23.88
2018-06-27T14:44:20.375Z,24.09
2018-06-27T14:46:48.261Z,24.19
2018-06-27T14:49:16.168Z,23.45
2018-06-27T14:51:44.072Z,23.84
2018-06-27T14:54:11.983Z,23.88
2018-06-27T14:56:39.898Z,23.56
2018-06-27T14:59:07.840Z,23.44
2018-06-27T15:01:36.159Z,23.28
2018-06-27T15:04:04.101Z,22.98
2018-06-27T15:06:32.128Z,23.10
2018-06-27T15:09:00.039Z,22.86
2018-06-27T15:11:28.430Z,22.63
2018-06-27T15:13:56.536Z,22.25
2018-06-27T15:16:24.595Z,22.05
2018-06-27T15:18:53.026Z,22.04
2018-06-27T15:23:07.609Z,21.79
2018-06-27T15:25:35.487Z,21.66
2018-06-27T15:28:03.385Z,21.69
2018-06-27T15:30:31.642Z,21.60
2018-06-27T15:32:59.621Z,21.40
2018-06-27T15:35:27.594Z,20.89
2018-06-27T15:37:55.442Z,20.64
2018-06-27T15:40:23.326Z,20.57
2018-06-27T15:42:51.206Z,20.57
2018-06-27T15:45:19.083Z,20.52
2018-06-27T15:47:47.023Z,20.41
2018-06-27T15:50:14.905Z,20.28
2018-06-27T15:52:42.782Z,20.34
2018-06-27T15:55:10.668Z,20.41
2018-06-27T15:57:38.616Z,20.59
2018-06-27T16:00:06.604Z,20.77
2018-06-27T16:02:34.566Z,20.77
2018-06-27T16:05:02.606Z,20.74
2018-06-27T16:07:30.633Z,20.78
2018-06-27T16:09:58.735Z,20.68
2018-06-27T16:12:26.884Z,20.56
2018-06-27T16:14:54.891Z,20.61
2018-06-27T16:17:23.095Z,20.59
2018-06-27T16:19:50.904Z,20.37
2018-06-27T16:22:18.818Z,20.57
2018-06-27T16:24:46.822Z,20.62
2018-06-27T16:27:14.892Z,20.65
2018-06-27T16:29:43.327Z,20.64
2018-06-27T16:32:11.254Z,20.50
2018-06-27T16:34:39.340Z,20.66
2018-06-27T16:37:07.397Z,20.51
2018-06-27T16:39:35.393Z,20.42
2018-06-27T16:42:03.366Z,20.50
2018-06-27T16:44:31.404Z,20.44
2018-06-27T16:46:59.407Z,20.37
2018-06-27T16:49:27.295Z,20.43
2018-06-27T16:51:55.343Z,20.57
2018-06-27T16:54:23.433Z,20.58
2018-06-27T16:56:51.343Z,20.51
2018-06-27T16:59:19.314Z,20.44
2018-06-27T17:01:47.319Z,20.24
2018-06-27T17:04:15.480Z,20.30
2018-06-27T17:06:43.446Z,20.25
2018-06-27T17:09:11.308Z,20.14
2018-06-27T17:11:39.739Z,20.19
2018-06-27T17:14:08.434Z,20.23
2018-06-27T17:16:36.435Z,20.26
2018-06-27T17:19:04.553Z,20.11
2018-06-27T17:21:32.663Z,20.08
2018-06-27T17:24:00.688Z,20.13
2018-06-27T17:26:28.691Z,19.99
2018-06-27T17:28:56.709Z,20.02
2018-06-27T17:31:24.816Z,20.05
2018-06-27T17:33:53.023Z,20.03
2018-06-27T17:36:22.691Z,19.93
2018-06-27T17:38:50.813Z,19.86
2018-06-27T17:41:18.974Z,19.78
2018-06-27T17:43:47.104Z,19.79
2018-06-27T17:46:15.196Z,19.77
2018-06-27T17:48:43.818Z,19.76
2018-06-27T17:51:11.951Z,19.74
2018-06-27T17:53:40.878Z,19.77
2018-06-27T17:56:08.881Z,19.72
2018-06-27T17:58:36.943Z,19.79
2018-06-27T18:01:04.902Z,19.88
2018-06-27T18:03:32.969Z,19.77
2018-06-27T18:06:01.031Z,19.79
2018-06-27T18:08:29.328Z,19.54
2018-06-27T18:10:57.295Z,19.43
2018-06-27T18:13:25.291Z,19.45
2018-06-27T18:15:53.367Z,19.45
2018-06-27T18:18:21.381Z,19.49
2018-06-27T18:20:49.339Z,19.59
2018-06-27T18:23:17.355Z,19.73
2018-06-27T18:25:45.321Z,19.61
2018-06-27T18:28:13.383Z,19.54
2018-06-27T18:30:41.339Z,19.49
2018-06-27T18:33:09.398Z,19.63
2018-06-27T18:35:37.449Z,19.63
2018-06-27T18:38:05.647Z,19.77
2018-06-27T18:40:33.590Z,19.81
2018-06-27T18:43:01.560Z,19.91
2018-06-27T18:45:29.529Z,20.03
2018-06-27T18:47:57.586Z,20.02
2018-06-27T18:50:25.562Z,19.95
2018-06-27T18:52:53.618Z,20.01
2018-06-27T18:55:21.656Z,19.92
2018-06-27T18:57:49.711Z,19.96
2018-06-27T19:00:17.739Z,19.99
2018-06-27T19:02:45.882Z,19.98
2018-06-27T19:05:13.818Z,20.03
2018-06-27T19:07:41.833Z,19.64
2018-06-27T19:10:09.853Z,19.69
2018-06-27T19:12:38.201Z,19.78
2018-06-27T19:15:06.322Z,19.94
2018-06-27T19:17:34.309Z,20.06
2018-06-27T19:20:02.285Z,20.15
2018-06-27T19:22:30.329Z,20.25
2018-06-27T19:24:58.355Z,20.32
2018-06-27T19:27:26.253Z,20.32
2018-06-27T19:29:54.193Z,20.47
2018-06-27T19:32:22.200Z,20.49
2018-06-27T19:34:50.188Z,20.52
2018-06-27T19:37:18.162Z,20.47
2018-06-27T19:39:46.140Z,20.55
2018-06-27T19:42:14.187Z,20.59
2018-06-27T19:44:42.114Z,20.57
2018-06-27T19:47:10.110Z,20.55
2018-06-27T19:49:38.098Z,20.51
2018-06-27T19:52:06.067Z,20.40
2018-06-27T19:54:34.161Z,20.41
2018-06-27T19:57:02.114Z,20.29
2018-06-27T19:59:30.011Z,20.34
2018-06-27T20:01:58.024Z,20.41
2018-06-27T20:04:26.043Z,20.56
2018-06-27T20:06:54.047Z,20.64
2018-06-27T20:09:21.874Z,20.58
2018-06-27T20:11:49.834Z,20.60
2018-06-27T20:14:17.756Z,20.54
2018-06-27T20:16:45.743Z,20.53
2018-06-27T20:19:13.839Z,20.73
2018-06-27T20:21:42.545Z,20.75
2018-06-27T20:24:10.540Z,20.51
2018-06-27T20:26:38.553Z,20.36
2018-06-27T20:29:06.871Z,20.41
2018-06-27T20:31:34.869Z,20.39
2018-06-27T20:34:02.949Z,20.48
2018-06-27T20:36:30.918Z,20.55
2018-06-27T20:38:58.846Z,20.63
2018-06-27T20:41:27.014Z,20.55
2018-06-27T20:43:54.934Z,20.60
2018-06-27T20:46:22.854Z,20.45
2018-06-27T20:48:50.807Z,20.49
2018-06-27T20:51:18.852Z,20.58
2018-06-27T20:53:46.903Z,20.64
2018-06-27T20:56:14.894Z,20.72
2018-06-27T20:58:42.820Z,20.76
2018-06-27T21:01:10.975Z,20.69
2018-06-27T21:03:38.918Z,20.59
2018-06-27T21:06:06.879Z,20.63
2018-06-27T21:08:34.836Z,20.65
2018-06-27T21:11:02.934Z,20.53
2018-06-27T21:13:30.803Z,20.52
2018-06-27T21:15:58.786Z,20.51
2018-06-27T21:18:26.782Z,20.63
2018-06-27T21:20:54.793Z,20.58
2018-06-27T21:23:22.767Z,20.61
2018-06-27T21:25:50.814Z,20.63
2018-06-27T21:28:18.735Z,20.59
2018-06-27T21:30:46.797Z,20.46
2018-06-27T21:33:14.699Z,20.21
2018-06-27T21:35:42.613Z,20.05
2018-06-27T21:38:10.496Z,20.02
2018-06-27T21:40:38.413Z,20.11
2018-06-27T21:43:06.313Z,20.09
2018-06-27T21:45:34.154Z,20.18
2018-06-27T21:48:02.053Z,20.02
2018-06-27T21:50:29.928Z,20.19
2018-06-27T21:52:57.788Z,20.22
2018-06-27T21:55:25.631Z,20.30
2018-06-27T21:57:53.476Z,20.44
2018-06-27T22:00:23.403Z,20.48
2018-06-27T22:02:51.607Z,20.47
2018-06-27T22:05:19.557Z,20.53
2018-06-27T22:07:47.576Z,20.42
2018-06-27T22:10:15.508Z,20.59
2018-06-27T22:12:43.493Z,20.71
2018-06-27T22:15:11.479Z,20.73
2018-06-27T22:17:39.462Z,20.50
2018-06-27T22:20:07.464Z,20.27
2018-06-27T22:22:35.408Z,20.15
2018-06-27T22:25:03.442Z,20.28
2018-06-27T22:27:31.395Z,20.24
2018-06-27T22:29:59.300Z,20.24
2018-06-27T22:32:27.258Z,20.25
2018-06-27T22:34:55.179Z,20.33
2018-06-27T22:37:23.070Z,20.34
2018-06-27T22:39:51.026Z,20.44
2018-06-27T22:42:19.034Z,20.55
2018-06-27T22:44:46.955Z,20.60
2018-06-27T22:47:14.900Z,20.44
2018-06-27T22:49:42.818Z,20.36
2018-06-27T22:52:10.724Z,20.33
2018-06-27T22:54:38.666Z,20.16
2018-06-27T22:57:06.604Z,20.08
2018-06-27T22:59:34.595Z,20.03
2018-06-27T23:02:02.532Z,20.08
2018-06-27T23:04:30.554Z,20.29
2018-06-27T23:06:58.482Z,20.45
2018-06-27T23:09:26.659Z,20.35
2018-06-27T23:11:54.675Z,20.20
2018-06-27T23:14:22.709Z,20.37
2018-06-27T23:16:50.686Z,20.49
2018-06-27T23:19:18.823Z,20.54
2018-06-27T23:21:46.759Z,20.61
2018-06-27T23:24:14.972Z,20.66
2018-06-27T23:26:49.424Z,20.65
2018-06-27T23:29:17.494Z,20.81
2018-06-27T23:31:45.854Z,20.93
2018-06-27T23:34:13.885Z,20.93
2018-06-27T23:36:42.168Z,20.97
2018-06-27T23:39:11.907Z,20.86
2018-06-27T23:41:40.411Z,20.63
2018-06-27T23:44:08.425Z,20.52
2018-06-27T23:46:36.448Z,20.51
2018-06-27T23:49:04.720Z,20.61
2018-06-27T23:51:32.758Z,20.60
2018-06-27T23:54:00.765Z,20.76
2018-06-27T23:56:28.728Z,20.81
2018-06-27T23:58:56.785Z,20.90
